Time;durP1;ratioP1;P1;durP2;ratioP2;P2;SDS_P1;SDS_P2;PMS_P1;PMS_P2;Temp;Humidity;BMP_temperature;BMP_pressure;BME280_temperature;BME280_humidity;BME280_pressure;Samples;Min_cycle;Max_cycle;Signal;HPM_P1;HPM_P2
2020/12/16 00:00:23;;;;;;;58.42;17.87;;;;;;;14.90;60.78;155033.39;1769742;80;21394;-66
2020/12/16 00:02:57;;;;;;;54.03;17.57;;;;;;;14.86;60.95;155022.84;1755905;81;21216;-67
2020/12/16 00:05:30;;;;;;;62.53;20.75;;;;;;;14.88;61.19;155029.41;1754117;82;21355;-67
2020/12/16 00:08:03;;;;;;;59.93;19.60;;;;;;;14.81;61.46;155009.72;1757269;81;21930;-67
2020/12/16 00:10:35;;;;;;;60.25;19.37;;;;;;;14.77;61.64;154999.17;1745561;82;21351;-67
2020/12/16 00:13:10;;;;;;;61.10;20.23;;;;;;;14.79;61.91;155005.73;1745088;81;21172;-67
2020/12/16 00:15:44;;;;;;;67.47;18.67;;;;;;;14.83;62.01;155014.94;1753872;81;21139;-67
2020/12/16 00:18:16;;;;;;;68.35;18.60;;;;;;;14.96;61.93;155050.50;1764234;81;21327;-66
2020/12/16 00:20:49;;;;;;;58.30;17.20;;;;;;;14.87;62.11;155025.48;1754055;81;21198;-66
2020/12/16 00:23:21;;;;;;;45.15;15.25;;;;;;;14.87;61.94;155025.48;1751205;81;21197;-66
2020/12/16 00:25:54;;;;;;;48.02;15.10;;;;;;;14.92;61.57;155038.66;1769692;81;21351;-66
2020/12/16 00:28:27;;;;;;;48.63;15.18;;;;;;;14.93;61.34;155041.30;1762427;80;21250;-67
2020/12/16 00:30:59;;;;;;;55.28;17.05;;;;;;;14.91;61.67;155037.31;1723641;83;21187;-67
2020/12/16 00:33:32;;;;;;;54.53;16.20;;;;;;;14.92;61.28;155038.66;1748367;82;21276;-66
2020/12/16 00:36:07;;;;;;;52.50;15.53;;;;;;;15.13;60.25;155093.92;1736236;82;21314;-66
2020/12/16 00:38:39;;;;;;;45.10;15.20;;;;;;;14.84;60.24;155017.58;1738998;82;21319;-66
2020/12/16 00:41:12;;;;;;;52.70;17.60;;;;;;;14.83;60.28;155014.94;1725226;82;21304;-66
2020/12/16 00:43:44;;;;;;;48.25;17.98;;;;;;;14.84;60.11;155017.58;1778289;80;21205;-67
2020/12/16 00:46:17;;;;;;;54.18;17.48;;;;;;;14.89;59.75;155030.75;1781566;79;21660;-67
2020/12/16 00:48:49;;;;;;;44.00;17.37;;;;;;;14.92;59.46;155038.66;1784366;79;21670;-67
2020/12/16 00:51:22;;;;;;;42.23;16.07;;;;;;;14.91;59.16;155037.31;1783795;79;21866;-67
2020/12/16 00:53:54;;;;;;;51.35;15.15;;;;;;;14.81;59.28;155009.72;1782614;79;21219;-67
2020/12/16 00:56:28;;;;;;;50.65;17.27;;;;;;;14.85;59.29;155021.56;1784028;79;21183;-67
2020/12/16 00:59:01;;;;;;;43.55;16.07;;;;;;;14.89;59.02;155032.05;1783634;79;21214;-66
2020/12/16 01:01:33;;;;;;;46.70;16.35;;;;;;;14.79;58.71;155005.73;1781948;79;21180;-67
2020/12/16 01:04:06;;;;;;;35.95;13.62;;;;;;;14.68;58.72;154975.50;1783015;80;21172;-66
2020/12/16 01:06:42;;;;;;;39.73;13.38;;;;;;;14.48;59.08;154924.19;1781586;80;21157;-66
2020/12/16 01:09:16;;;;;;;39.20;13.58;;;;;;;14.55;59.15;154941.30;1783501;80;21667;-67
2020/12/16 01:11:49;;;;;;;51.25;15.38;;;;;;;14.65;59.04;154967.59;1782773;80;21176;-66
2020/12/16 01:14:25;;;;;;;48.68;15.95;;;;;;;14.64;58.88;154964.97;1781674;79;21339;-66
2020/12/16 01:16:58;;;;;;;50.25;14.28;;;;;;;14.65;58.90;154967.59;1778416;80;21357;-66
2020/12/16 01:19:32;;;;;;;52.93;16.23;;;;;;;14.84;58.72;155018.91;1781313;80;21167;-67
2020/12/16 01:22:05;;;;;;;52.00;16.67;;;;;;;14.74;58.49;154991.27;1778196;80;21212;-67
2020/12/16 01:24:38;;;;;;;48.75;16.05;;;;;;;14.49;58.98;154925.48;1781769;80;21181;-67
2020/12/16 01:27:10;;;;;;;50.98;15.53;;;;;;;14.60;58.97;154955.77;1776520;80;21293;-67
2020/12/16 01:29:43;;;;;;;50.25;16.45;;;;;;;14.69;58.97;154978.14;1749976;80;21314;-67
2020/12/16 01:32:18;;;;;;;40.63;15.23;;;;;;;14.72;58.84;154987.34;1783186;80;21259;-67
2020/12/16 01:34:51;;;;;;;46.80;17.65;;;;;;;14.75;58.50;154995.25;1783691;80;21186;-67
2020/12/16 01:37:24;;;;;;;51.80;17.05;;;;;;;14.68;58.70;154976.80;1781219;80;21287;-67
2020/12/16 01:39:56;;;;;;;45.75;17.60;;;;;;;14.72;58.49;154986.00;1783223;80;21336;-67
2020/12/16 01:42:30;;;;;;;45.92;16.15;;;;;;;14.69;58.29;154978.14;1781915;80;21167;-67
2020/12/16 01:45:15;;;;;;;42.67;17.23;;;;;;;14.69;58.32;154978.14;1782036;80;21672;-67
2020/12/16 01:47:49;;;;;;;39.35;15.50;;;;;;;14.65;58.38;154968.89;1783306;80;21314;-67
2020/12/16 01:50:24;;;;;;;34.90;14.38;;;;;;;14.70;58.24;154982.06;1780484;80;21328;-66
2020/12/16 01:52:58;;;;;;;33.95;14.10;;;;;;;14.69;58.36;154979.44;1731163;80;21363;-67
2020/12/16 01:55:32;;;;;;;37.73;14.95;;;;;;;14.72;58.18;154986.00;1781726;80;21693;-67
2020/12/16 01:58:07;;;;;;;38.28;14.55;;;;;;;14.67;58.14;154974.16;1780319;80;21148;-66
2020/12/16 02:00:41;;;;;;;34.58;14.45;;;;;;;14.66;58.17;154970.23;1780012;80;21169;-67
2020/12/16 02:03:16;;;;;;;39.48;14.87;;;;;;;14.66;58.04;154970.23;1777853;80;21261;-67
2020/12/16 02:05:52;;;;;;;38.65;16.20;;;;;;;14.64;57.87;154966.25;1777470;80;21169;-67
2020/12/16 02:08:26;;;;;;;37.20;15.85;;;;;;;14.48;57.77;154922.84;1780791;80;21130;-67
2020/12/16 02:10:59;;;;;;;35.70;14.60;;;;;;;14.31;58.18;154876.81;1751260;79;21238;-67
2020/12/16 02:13:33;;;;;;;29.80;13.53;;;;;;;14.29;58.29;154871.59;1781625;80;21662;-66
2020/12/16 02:16:05;;;;;;;27.22;12.65;;;;;;;14.33;58.26;154882.08;1780374;80;21335;-67
2020/12/16 02:18:38;;;;;;;28.00;12.45;;;;;;;14.56;57.91;154945.22;1752432;80;21793;-67
2020/12/16 02:21:12;;;;;;;28.60;12.53;;;;;;;14.63;57.83;154963.67;1781322;80;21304;-67
2020/12/16 02:23:47;;;;;;;28.77;11.50;;;;;;;14.46;58.23;154917.63;1782705;80;21202;-67
2020/12/16 02:26:20;;;;;;;23.67;11.43;;;;;;;14.49;58.23;154926.81;1782449;80;21207;-67
2020/12/16 02:28:54;;;;;;;23.27;10.48;;;;;;;14.49;58.10;154925.48;1778887;80;21170;-67
2020/12/16 02:31:34;;;;;;;21.93;10.98;;;;;;;14.51;58.06;154932.09;1782549;80;21709;-67
2020/12/16 02:34:11;;;;;;;27.35;12.45;;;;;;;14.51;58.00;154932.09;1782185;80;21160;-66
2020/12/16 02:36:45;;;;;;;26.02;11.53;;;;;;;14.50;57.97;154928.13;1779592;80;21196;-66
2020/12/16 02:39:20;;;;;;;21.48;11.48;;;;;;;14.49;57.96;154925.48;1779479;80;21338;-67
2020/12/16 02:42:05;;;;;;;23.35;10.65;;;;;;;14.54;57.80;154939.94;1771001;80;21828;-67
2020/12/16 02:44:38;;;;;;;20.15;10.38;;;;;;;14.56;57.68;154945.22;1782877;80;21817;-67
2020/12/16 02:47:12;;;;;;;22.32;10.68;;;;;;;14.71;57.54;154984.70;1779236;79;21814;-67
2020/12/16 02:49:46;;;;;;;24.80;11.33;;;;;;;14.53;57.59;154937.31;1781610;80;21172;-67
2020/12/16 02:52:19;;;;;;;21.23;10.43;;;;;;;14.38;57.66;154895.25;1782373;80;21228;-66
2020/12/16 02:54:51;;;;;;;20.72;10.10;;;;;;;14.27;57.82;154867.61;1783456;80;21218;-66
2020/12/16 02:57:31;;;;;;;21.03;9.83;;;;;;;14.29;57.97;154872.88;1781866;80;21341;-67
2020/12/16 03:00:06;;;;;;;20.12;9.33;;;;;;;14.33;58.04;154883.42;1783372;80;21575;-67
2020/12/16 03:02:58;;;;;;;19.05;9.48;;;;;;;14.35;58.03;154888.64;1781598;80;21189;-67
2020/12/16 03:05:32;;;;;;;19.87;9.73;;;;;;;14.42;57.93;154907.09;1781631;80;21243;-67
2020/12/16 03:08:09;;;;;;;17.20;9.18;;;;;;;14.43;57.87;154909.72;1782871;80;21349;-67
2020/12/16 03:10:43;;;;;;;23.67;10.45;;;;;;;14.45;57.70;154915.00;1782340;80;21635;-66
2020/12/16 03:13:15;;;;;;;20.48;10.50;;;;;;;14.41;57.58;154903.16;1782803;80;21856;-67
2020/12/16 03:15:49;;;;;;;17.32;9.13;;;;;;;14.36;57.71;154891.28;1780977;80;21142;-67
2020/12/16 03:18:22;;;;;;;18.57;9.95;;;;;;;14.36;57.89;154891.28;1782989;80;21183;-66
2020/12/16 03:20:56;;;;;;;19.52;9.35;;;;;;;14.38;58.00;154895.25;1782746;80;21179;-67
2020/12/16 03:23:29;;;;;;;19.62;9.50;;;;;;;14.42;57.73;154907.09;1783852;79;21230;-67
2020/12/16 03:26:15;;;;;;;18.87;9.25;;;;;;;14.42;57.75;154907.09;1700884;80;21834;-67
2020/12/16 03:28:55;;;;;;;17.70;9.80;;;;;;;14.40;57.81;154901.81;1773961;80;21805;-67
2020/12/16 03:31:41;;;;;;;21.50;9.40;;;;;;;14.42;57.81;154907.09;1681828;80;21168;-67
2020/12/16 03:34:19;;;;;;;23.57;10.30;;;;;;;14.48;57.70;154924.19;1696677;80;21298;-67
2020/12/16 03:37:02;;;;;;;23.32;11.25;;;;;;;14.50;57.44;154928.13;1781239;80;21291;-66
2020/12/16 03:39:35;;;;;;;23.40;12.18;;;;;;;14.48;57.48;154924.19;1781538;80;21167;-66
2020/12/16 03:42:08;;;;;;;23.55;12.05;;;;;;;14.65;57.08;154968.89;1781651;80;21786;-66
2020/12/16 03:44:42;;;;;;;22.30;12.40;;;;;;;14.67;56.86;154972.88;1779962;80;21819;-66
2020/12/16 03:47:16;;;;;;;25.72;12.58;;;;;;;14.53;57.03;154937.31;1781400;80;21349;-66
2020/12/16 03:49:50;;;;;;;26.80;12.70;;;;;;;14.40;57.21;154901.81;1783844;80;21235;-66
2020/12/16 03:52:22;;;;;;;25.60;13.48;;;;;;;14.34;57.25;154886.06;1781322;80;21369;-66
2020/12/16 03:54:56;;;;;;;24.63;13.18;;;;;;;14.36;57.46;154889.98;1779078;79;21328;-66
2020/12/16 03:57:46;;;;;;;23.17;12.27;;;;;;;14.24;57.52;154858.41;1780731;79;21292;-66
2020/12/16 04:00:20;;;;;;;25.88;13.08;;;;;;;14.26;57.59;154863.69;1779204;80;21140;-66
2020/12/16 04:02:54;;;;;;;21.20;11.95;;;;;;;14.27;57.66;154867.61;1782191;80;21750;-66
2020/12/16 04:05:38;;;;;;;25.70;12.70;;;;;;;14.32;57.58;154879.44;1773104;80;21284;-67
2020/12/16 04:08:10;;;;;;;21.73;11.45;;;;;;;14.33;57.46;154882.08;1781924;80;21201;-68
2020/12/16 04:11:03;;;;;;;21.42;12.35;;;;;;;14.30;57.60;154875.52;1780336;80;21234;-68
2020/12/16 04:13:36;;;;;;;21.70;11.20;;;;;;;14.41;57.48;154904.45;1780762;80;21382;-67
2020/12/16 04:16:13;;;;;;;22.30;10.55;;;;;;;14.44;57.24;154912.36;1783183;80;21313;-67
2020/12/16 04:18:48;;;;;;;20.85;10.95;;;;;;;14.43;57.37;154909.72;1781896;79;21153;-67
2020/12/16 04:21:21;;;;;;;24.02;11.50;;;;;;;14.47;57.36;154920.22;1783278;80;21319;-67
2020/12/16 04:23:53;;;;;;;19.62;10.05;;;;;;;14.36;57.27;154891.28;1789188;79;21794;-67
2020/12/16 04:26:40;;;;;;;18.27;9.58;;;;;;;14.35;57.24;154887.34;1778847;79;21208;-67
2020/12/16 04:29:14;;;;;;;21.52;10.43;;;;;;;14.36;57.27;154889.98;1783245;80;21319;-67
2020/12/16 04:31:51;;;;;;;20.88;10.55;;;;;;;14.30;57.33;154874.17;1783804;80;21141;-67
2020/12/16 04:34:25;;;;;;;22.90;11.03;;;;;;;14.15;57.64;154836.05;1782754;79;21188;-64
2020/12/16 04:36:57;;;;;;;17.42;9.93;;;;;;;14.29;57.42;154871.59;1784018;79;21122;-64
2020/12/16 04:39:30;;;;;;;22.87;11.33;;;;;;;14.28;57.35;154870.25;1782926;80;21711;-64
2020/12/16 04:42:03;;;;;;;21.50;11.28;;;;;;;14.19;57.27;154846.58;1784108;80;21165;-64
2020/12/16 04:44:37;;;;;;;25.72;11.75;;;;;;;14.03;57.45;154804.44;1782179;79;21354;-65
2020/12/16 04:47:11;;;;;;;26.97;12.80;;;;;;;13.99;57.61;154793.95;1774672;80;21158;-64
2020/12/16 04:49:46;;;;;;;26.93;12.82;;;;;;;13.98;57.84;154789.97;1779751;79;21229;-63
2020/12/16 04:52:20;;;;;;;35.30;15.08;;;;;;;14.08;57.88;154816.27;1777425;80;21650;-65
2020/12/16 04:55:00;;;;;;;26.07;14.05;;;;;;;14.07;57.65;154814.97;1725805;79;21142;-67
2020/12/16 04:57:34;;;;;;;31.85;14.45;;;;;;;14.06;57.86;154811.05;1793270;79;21684;-67
2020/12/16 05:00:09;;;;;;;25.27;14.28;;;;;;;14.04;57.92;154807.06;1781055;80;21221;-67
2020/12/16 05:03:04;;;;;;;25.75;13.90;;;;;;;14.03;58.14;154804.44;1779904;80;21379;-67
2020/12/16 05:05:55;;;;;;;27.02;13.70;;;;;;;14.09;57.91;154820.23;1766963;80;21380;-67
2020/12/16 05:08:28;;;;;;;27.10;13.58;;;;;;;14.03;57.86;154803.14;1773462;79;21206;-68
2020/12/16 05:11:01;;;;;;;29.60;13.55;;;;;;;14.03;57.79;154804.44;1769812;80;21629;-68
2020/12/16 05:13:33;;;;;;;30.20;14.05;;;;;;;14.03;57.87;154804.44;1779655;80;21300;-68
2020/12/16 05:16:05;;;;;;;31.70;14.47;;;;;;;14.09;58.04;154820.23;1780661;80;21331;-66
2020/12/16 05:18:38;;;;;;;26.70;13.95;;;;;;;14.22;57.85;154853.16;1778409;80;21404;-67
2020/12/16 05:21:11;;;;;;;31.55;16.97;;;;;;;14.20;57.76;154849.22;1777511;80;21214;-66
2020/12/16 05:23:43;;;;;;;27.75;14.87;;;;;;;14.19;57.72;154846.58;1778857;79;21301;-67
2020/12/16 05:26:15;;;;;;;27.60;14.80;;;;;;;14.18;57.69;154843.95;1776571;80;21731;-67
2020/12/16 05:28:49;;;;;;;27.62;14.20;;;;;;;14.23;57.73;154855.78;1777056;80;21177;-67
2020/12/16 05:31:21;;;;;;;28.55;14.78;;;;;;;14.21;57.67;154851.86;1779557;80;21166;-67
2020/12/16 05:33:54;;;;;;;26.15;12.68;;;;;;;14.21;57.50;154851.86;1771215;80;21230;-66
2020/12/16 05:36:33;;;;;;;31.37;14.25;;;;;;;14.18;57.55;154843.95;1780735;80;21177;-71
2020/12/16 05:39:05;;;;;;;29.27;14.53;;;;;;;14.13;57.68;154830.78;1778806;80;21218;-67
2020/12/16 05:41:38;;;;;;;29.98;14.23;;;;;;;14.42;57.26;154907.09;1781599;80;21233;-67
2020/12/16 05:44:24;;;;;;;30.60;15.03;;;;;;;14.33;56.89;154882.08;1785455;79;21276;-67
2020/12/16 05:46:56;;;;;;;32.98;15.05;;;;;;;14.21;56.95;154850.52;1765167;80;21190;-67
2020/12/16 05:49:31;;;;;;;29.20;14.45;;;;;;;14.18;57.03;154842.61;1777866;80;21198;-67
2020/12/16 05:52:05;;;;;;;32.45;16.52;;;;;;;14.14;57.12;154832.13;1781221;80;21373;-67
2020/12/16 05:54:38;;;;;;;36.95;14.80;;;;;;;14.13;57.17;154829.48;1779368;80;21328;-63
2020/12/16 05:57:20;;;;;;;34.55;15.13;;;;;;;13.94;57.64;154779.48;1778671;80;21186;-68
2020/12/16 06:00:12;;;;;;;33.67;14.95;;;;;;;13.86;57.88;154758.42;1776319;79;21209;-72
2020/12/16 06:02:45;;;;;;;28.87;14.60;;;;;;;13.97;57.87;154787.34;1776983;79;21392;-72
2020/12/16 06:05:18;;;;;;;28.73;15.78;;;;;;;14.00;57.76;154795.23;1778418;79;21342;-69
2020/12/16 06:07:50;;;;;;;28.75;14.45;;;;;;;13.97;57.73;154788.69;1778947;79;21360;-70
2020/12/16 06:10:23;;;;;;;31.50;14.10;;;;;;;14.08;57.54;154816.27;1777566;79;21792;-69
2020/12/16 06:12:55;;;;;;;32.40;15.18;;;;;;;13.90;57.71;154770.25;1761635;80;21701;-70
2020/12/16 06:15:28;;;;;;;31.80;15.55;;;;;;;14.12;57.46;154826.84;1777576;79;21372;-67
2020/12/16 06:18:03;;;;;;;29.77;13.88;;;;;;;14.19;57.38;154845.25;1777973;79;21214;-67
2020/12/16 06:20:39;;;;;;;24.60;12.65;;;;;;;14.23;57.31;154857.13;1778108;79;21238;-66
2020/12/16 06:23:24;;;;;;;28.60;13.68;;;;;;;14.20;57.17;154849.22;1775989;80;21223;-60
2020/12/16 06:26:00;;;;;;;33.63;14.47;;;;;;;14.21;56.95;154851.86;1776820;80;21163;-64
2020/12/16 06:28:33;;;;;;;28.75;15.45;;;;;;;14.18;56.99;154843.95;1776009;79;21313;-63
2020/12/16 06:31:29;;;;;;;32.25;16.02;;;;;;;14.16;56.85;154837.39;1774715;80;21630;-63
2020/12/16 06:34:10;;;;;;;29.23;16.30;;;;;;;14.19;56.86;154846.58;1779129;80;21226;-63
2020/12/16 06:36:43;;;;;;;25.88;14.30;;;;;;;14.26;56.90;154864.97;1779512;80;21336;-62
2020/12/16 06:39:24;;;;;;;28.77;15.85;;;;;;;14.31;56.63;154878.16;1763649;80;21213;-63
2020/12/16 06:41:58;;;;;;;32.20;17.37;;;;;;;14.32;56.60;154880.78;1779145;80;21386;-62
2020/12/16 06:44:30;;;;;;;32.48;17.52;;;;;;;13.99;56.75;154793.95;1779231;80;21215;-63
2020/12/16 06:47:02;;;;;;;27.52;16.60;;;;;;;13.94;57.07;154779.48;1780260;80;21330;-62
2020/12/16 06:49:38;;;;;;;27.80;15.20;;;;;;;13.96;57.11;154786.05;1781481;79;21823;-62
2020/12/16 06:52:13;;;;;;;28.80;15.80;;;;;;;14.27;56.68;154866.31;1779959;80;21159;-63
2020/12/16 06:54:53;;;;;;;28.60;15.00;;;;;;;14.28;56.47;154870.25;1773406;79;21178;-63
2020/12/16 06:57:25;;;;;;;21.37;12.25;;;;;;;14.29;56.24;154871.59;1763075;80;21405;-63
2020/12/16 07:00:02;;;;;;;21.27;11.00;;;;;;;14.27;56.27;154867.61;1774895;80;21242;-63
2020/12/16 07:02:36;;;;;;;21.35;12.28;;;;;;;14.30;55.93;154875.52;1774802;79;21161;-63
2020/12/16 07:05:29;;;;;;;20.23;11.85;;;;;;;14.30;55.79;154874.17;1778698;80;21222;-63
2020/12/16 07:08:02;;;;;;;20.45;10.78;;;;;;;14.23;55.50;154857.13;1795395;79;21324;-63
2020/12/16 07:10:41;;;;;;;17.48;10.75;;;;;;;14.20;55.47;154849.22;1775983;79;21205;-63
2020/12/16 07:13:23;;;;;;;15.08;9.80;;;;;;;14.15;54.76;154836.05;1772825;81;21324;-64
2020/12/16 07:16:14;;;;;;;16.05;10.25;;;;;;;14.04;54.75;154807.06;1772901;81;21198;-64
2020/12/16 07:18:51;;;;;;;18.98;10.45;;;;;;;14.14;55.19;154833.41;1767301;80;21313;-64
2020/12/16 07:21:28;;;;;;;19.70;11.20;;;;;;;14.20;55.02;154849.22;1780353;80;21292;-64
2020/12/16 07:24:16;;;;;;;22.85;11.45;;;;;;;14.25;54.85;154861.05;1781216;79;21352;-65
2020/12/16 07:26:56;;;;;;;22.62;10.82;;;;;;;14.26;55.09;154863.69;1781277;80;21189;-65
2020/12/16 07:29:40;;;;;;;20.08;10.55;;;;;;;14.37;55.03;154892.62;1780374;80;21229;-65
2020/12/16 07:32:13;;;;;;;17.65;10.55;;;;;;;14.17;55.31;154840.03;1772587;81;21308;-65
2020/12/16 07:34:59;;;;;;;17.57;11.15;;;;;;;14.14;55.16;154832.13;1780203;80;21812;-68
2020/12/16 07:37:33;;;;;;;21.42;11.00;;;;;;;14.42;54.81;154907.09;1781212;80;21202;-67
2020/12/16 07:40:10;;;;;;;20.20;12.00;;;;;;;14.50;54.67;154928.13;1780904;79;21293;-66
2020/12/16 07:42:40;;;;;;;20.70;10.82;;;;;;;14.52;54.61;154934.67;1781124;80;21348;-68
2020/12/16 07:45:14;;;;;;;26.27;12.90;;;;;;;14.53;54.52;154936.02;1775480;79;21330;-68
2020/12/16 07:47:46;;;;;;;19.92;11.50;;;;;;;14.53;54.40;154937.31;1735160;80;21240;-66
2020/12/16 07:50:19;;;;;;;18.23;12.50;;;;;;;14.55;54.31;154942.59;1775618;80;21209;-66
2020/12/16 07:52:54;;;;;;;21.00;12.75;;;;;;;14.47;54.31;154920.22;1766400;81;21188;-66
2020/12/16 07:55:27;;;;;;;17.98;11.38;;;;;;;14.44;54.38;154913.64;1714906;83;21479;-66
2020/12/16 07:58:08;;;;;;;19.55;12.37;;;;;;;14.21;54.14;154851.86;1714590;83;21405;-66
2020/12/16 08:00:40;;;;;;;18.35;11.48;;;;;;;14.36;54.49;154889.98;1715553;82;21319;-66
2020/12/16 08:03:14;;;;;;;17.15;11.93;;;;;;;14.35;54.14;154888.64;1744519;82;21244;-66
2020/12/16 08:06:00;;;;;;;26.35;13.65;;;;;;;14.35;54.17;154888.64;1731718;81;21248;-66
2020/12/16 08:08:35;;;;;;;18.70;11.83;;;;;;;14.50;53.73;154929.45;1742605;82;21427;-66
2020/12/16 08:11:16;;;;;;;19.90;11.15;;;;;;;14.24;53.91;154858.41;1729492;81;21221;-66
2020/12/16 08:13:49;;;;;;;21.50;11.95;;;;;;;14.25;54.10;154862.34;1715235;82;21233;-66
2020/12/16 08:16:21;;;;;;;19.75;11.05;;;;;;;14.46;53.88;154917.63;1668423;86;21393;-66
2020/12/16 08:18:53;;;;;;;25.60;12.73;;;;;;;14.49;53.71;154925.48;1714789;83;21386;-66
2020/12/16 08:21:26;;;;;;;17.57;10.98;;;;;;;14.48;53.73;154924.19;1739780;81;21268;-66
2020/12/16 08:23:58;;;;;;;17.73;12.13;;;;;;;14.54;54.02;154939.94;1744433;81;21176;-66
2020/12/16 08:26:31;;;;;;;22.37;12.47;;;;;;;14.91;53.32;155036.03;1749445;81;21347;-66
2020/12/16 08:29:06;;;;;;;18.62;11.60;;;;;;;14.95;53.37;155046.52;1731222;82;21730;-66
2020/12/16 08:31:39;;;;;;;18.98;12.23;;;;;;;14.97;53.19;155051.80;1714625;82;21386;-67
2020/12/16 08:34:11;;;;;;;19.42;12.63;;;;;;;14.80;53.51;155008.38;1666483;82;21237;-66
2020/12/16 08:36:44;;;;;;;19.60;12.53;;;;;;;14.91;53.55;155036.03;1688383;83;21361;-66
2020/12/16 08:39:16;;;;;;;22.48;12.63;;;;;;;14.78;53.53;155003.11;1660691;84;21372;-66
2020/12/16 08:41:49;;;;;;;23.38;11.88;;;;;;;14.96;53.29;155050.50;1725820;81;21417;-63
2020/12/16 08:44:23;;;;;;;16.95;10.88;;;;;;;14.78;53.42;155001.81;1684903;81;21382;-66
2020/12/16 08:46:55;;;;;;;17.87;11.00;;;;;;;14.87;53.31;155026.78;1729326;81;21176;-73
2020/12/16 08:49:28;;;;;;;20.92;11.18;;;;;;;15.05;52.99;155072.83;1741638;81;21252;-75
2020/12/16 08:52:01;;;;;;;18.73;10.40;;;;;;;15.04;52.98;155071.53;1766579;80;21839;-73
2020/12/16 08:54:35;;;;;;;20.17;10.43;;;;;;;15.05;52.76;155072.83;1776155;80;21328;-76
2020/12/16 08:57:07;;;;;;;18.37;9.15;;;;;;;15.03;52.81;155068.91;1743274;81;21274;-70
2020/12/16 08:59:40;;;;;;;17.10;10.10;;;;;;;14.69;53.13;154979.44;1776431;79;21218;-73
2020/12/16 09:02:12;;;;;;;15.75;9.95;;;;;;;14.79;53.27;155004.44;1740242;81;21199;-73
2020/12/16 09:04:46;;;;;;;16.52;10.18;;;;;;;14.90;53.00;155033.39;1727793;82;21278;-72
2020/12/16 09:07:24;;;;;;;13.18;8.50;;;;;;;14.63;53.58;154962.31;1724534;80;21181;-74
2020/12/16 09:09:58;;;;;;;15.15;8.08;;;;;;;14.59;53.63;154953.12;1781520;79;21225;-74
2020/12/16 09:12:31;;;;;;;24.87;9.45;;;;;;;14.73;53.61;154989.97;1780555;79;21214;-75
2020/12/16 09:15:04;;;;;;;15.80;8.13;;;;;;;14.55;53.73;154941.30;1783495;79;21271;-74
2020/12/16 09:17:37;;;;;;;14.43;8.38;;;;;;;14.74;53.64;154991.27;1783283;79;21933;-77
2020/12/16 09:20:12;;;;;;;10.68;7.72;;;;;;;14.74;53.51;154991.27;1783029;79;21835;-73
2020/12/16 09:22:47;;;;;;;13.38;7.17;;;;;;;14.64;53.61;154964.97;1782624;79;21389;-76
2020/12/16 09:25:20;;;;;;;12.60;7.30;;;;;;;14.69;53.75;154978.14;1781915;79;21419;-79
2020/12/16 09:28:06;;;;;;;11.85;6.87;;;;;;;14.70;53.69;154980.72;1782220;80;21356;-76
2020/12/16 09:30:39;;;;;;;11.68;7.53;;;;;;;14.72;53.75;154987.34;1779028;80;21245;-77
2020/12/16 09:33:15;;;;;;;12.35;7.67;;;;;;;14.62;53.59;154961.03;1781983;79;21883;-84
2020/12/16 09:35:50;;;;;;;11.95;7.35;;;;;;;14.63;53.52;154963.67;1781928;79;21198;-75
2020/12/16 09:38:23;;;;;;;9.20;6.10;;;;;;;14.21;53.94;154851.86;1764790;80;21938;-70
2020/12/16 09:41:02;;;;;;;10.13;6.37;;;;;;;14.20;54.21;154847.87;1782378;79;21322;-75
2020/12/16 09:43:41;;;;;;;12.98;7.05;;;;;;;14.13;54.24;154830.78;1781335;79;21700;-73
2020/12/16 09:46:21;;;;;;;8.30;5.55;;;;;;;14.29;54.08;154872.88;1781562;79;21316;-76
2020/12/16 09:48:59;;;;;;;7.72;5.10;;;;;;;14.40;53.74;154900.53;1781922;79;21309;-73
2020/12/16 09:51:37;;;;;;;7.97;5.42;;;;;;;14.21;53.75;154850.52;1779949;79;21399;-70
2020/12/16 09:54:10;;;;;;;8.18;5.60;;;;;;;13.95;54.42;154783.41;1778771;79;21425;-80
2020/12/16 09:56:44;;;;;;;9.13;5.33;;;;;;;14.33;54.09;154883.42;1779185;80;21141;-69
2020/12/16 09:59:20;;;;;;;9.38;5.55;;;;;;;14.36;53.98;154891.28;1779181;79;21338;-65
2020/12/16 10:01:52;;;;;;;9.85;6.25;;;;;;;14.25;54.02;154861.05;1778375;79;21358;-68
2020/12/16 10:04:25;;;;;;;9.03;5.90;;;;;;;14.29;54.27;154871.59;1779262;79;21377;-67
2020/12/16 10:06:57;;;;;;;7.50;4.85;;;;;;;14.38;54.24;154896.55;1778828;79;21360;-66
2020/12/16 10:09:35;;;;;;;9.98;6.28;;;;;;;14.32;53.93;154880.78;1778412;79;22692;-67
2020/12/16 10:12:05;;;;;;;8.05;5.05;;;;;;;14.25;54.12;154861.05;1778410;79;21345;-63
2020/12/16 10:14:37;;;;;;;7.80;4.60;;;;;;;14.26;54.31;154864.97;1778306;79;21347;-65
2020/12/16 10:17:11;;;;;;;8.23;5.05;;;;;;;14.24;54.49;154859.70;1778758;79;21371;-65
2020/12/16 10:19:44;;;;;;;10.68;5.97;;;;;;;14.02;54.67;154800.52;1778980;79;21181;-64
2020/12/16 10:22:17;;;;;;;7.00;4.53;;;;;;;13.88;54.97;154765.03;1778404;79;21367;-70
2020/12/16 10:24:49;;;;;;;9.13;5.42;;;;;;;13.76;55.29;154733.47;1778373;79;21348;-65
2020/12/16 10:27:22;;;;;;;8.40;5.65;;;;;;;13.67;55.25;154708.48;1779491;80;21319;-67
2020/12/16 10:29:58;;;;;;;8.88;5.50;;;;;;;13.67;55.57;154709.77;1779096;79;21244;-71
2020/12/16 10:32:30;;;;;;;8.75;5.33;;;;;;;13.79;55.53;154740.03;1779117;79;21366;-69
2020/12/16 10:35:04;;;;;;;10.63;6.90;;;;;;;13.48;56.18;154658.56;1779054;79;21398;-67
2020/12/16 10:37:40;;;;;;;9.48;6.20;;;;;;;13.88;55.73;154765.03;1777649;79;21407;-66
2020/12/16 10:40:12;;;;;;;9.03;5.70;;;;;;;13.70;56.00;154716.38;1776892;79;21224;-66
2020/12/16 10:42:44;;;;;;;10.38;6.47;;;;;;;13.69;56.09;154713.75;1778191;79;21387;-68
2020/12/16 10:45:17;;;;;;;11.35;7.28;;;;;;;13.73;56.02;154725.58;1778516;79;21870;-64
2020/12/16 10:47:55;;;;;;;10.30;6.97;;;;;;;13.75;56.11;154730.84;1778290;79;21368;-65
2020/12/16 10:50:25;;;;;;;12.80;8.03;;;;;;;13.69;56.04;154713.75;1778560;79;21218;-64
2020/12/16 10:52:59;;;;;;;16.73;9.25;;;;;;;13.51;56.04;154666.41;1763853;80;21267;-64
2020/12/16 10:55:33;;;;;;;35.20;17.37;;;;;;;13.78;55.87;154738.69;1756302;81;21175;-65
2020/12/16 10:58:05;;;;;;;57.43;26.60;;;;;;;13.93;55.74;154778.16;1746576;81;21381;-64
2020/12/16 11:00:39;;;;;;;21.42;12.30;;;;;;;13.98;55.70;154789.97;1721483;81;21368;-65
2020/12/16 11:03:11;;;;;;;23.42;14.38;;;;;;;14.08;55.60;154816.27;1715575;81;21220;-66
2020/12/16 11:05:43;;;;;;;20.92;11.80;;;;;;;14.05;55.58;154809.70;1717532;82;21271;-65
2020/12/16 11:08:16;;;;;;;17.20;10.35;;;;;;;13.73;55.99;154724.23;1717117;82;21771;-65
2020/12/16 11:10:52;;;;;;;14.80;9.35;;;;;;;13.60;56.23;154691.39;1748448;81;21838;-64
2020/12/16 11:13:25;;;;;;;14.03;9.25;;;;;;;13.64;56.05;154701.92;1759030;81;21771;-65
2020/12/16 11:15:57;;;;;;;17.17;9.83;;;;;;;13.63;55.92;154697.95;1750804;81;21343;-62
2020/12/16 11:18:30;;;;;;;18.67;9.83;;;;;;;13.63;56.28;154697.95;1759621;80;21663;-62
2020/12/16 11:21:02;;;;;;;16.17;9.80;;;;;;;13.83;56.06;154751.86;1748955;81;21409;-68
2020/12/16 11:23:35;;;;;;;16.75;9.95;;;;;;;13.49;56.21;154661.14;1764391;81;21316;-63
2020/12/16 11:26:07;;;;;;;17.87;11.05;;;;;;;13.80;56.03;154743.95;1763068;81;21204;-66
2020/12/16 11:28:40;;;;;;;19.37;10.35;;;;;;;13.89;55.89;154767.61;1755267;81;21225;-63
2020/12/16 11:31:12;;;;;;;18.42;10.65;;;;;;;13.54;56.29;154675.59;1763359;81;21292;-66
2020/12/16 11:33:45;;;;;;;17.02;10.63;;;;;;;13.64;56.40;154701.92;1765517;79;21193;-64
2020/12/16 11:36:17;;;;;;;15.88;9.60;;;;;;;13.61;56.42;154694.03;1767932;81;21455;-64
2020/12/16 11:38:50;;;;;;;18.37;10.93;;;;;;;13.18;56.88;154578.39;1761041;81;21236;-63
2020/12/16 11:41:24;;;;;;;18.30;10.60;;;;;;;13.60;56.51;154691.39;1763663;79;21695;-65
2020/12/16 11:43:56;;;;;;;22.70;11.15;;;;;;;13.48;56.62;154658.56;1747192;81;21374;-69
2020/12/16 11:46:31;;;;;;;22.32;11.40;;;;;;;13.48;56.63;154658.56;1726224;81;21375;-64